createdAt,value
2023-02-19T00:01:39.703Z,99.90
2023-02-19T00:04:11.509Z,99.90
2023-02-19T00:06:38.676Z,99.90
2023-02-19T00:09:06.338Z,99.90
2023-02-19T00:11:35.356Z,99.90
2023-02-19T00:14:03.721Z,99.90
2023-02-19T00:16:32.265Z,99.90
2023-02-19T00:19:01.104Z,99.90
2023-02-19T00:21:29.371Z,99.90
2023-02-19T00:24:02.513Z,99.90
2023-02-19T00:26:29.927Z,99.90
2023-02-19T00:28:58.192Z,99.90
2023-02-19T00:31:29.485Z,99.90
2023-02-19T00:33:59.908Z,99.90
2023-02-19T00:36:28.476Z,99.90
2023-02-19T00:38:55.840Z,99.90
2023-02-19T00:41:24.359Z,99.90
2023-02-19T00:43:54.326Z,99.90
2023-02-19T00:46:22.593Z,99.90
2023-02-19T00:48:50.138Z,99.90
2023-02-19T00:51:17.348Z,99.90
2023-02-19T00:53:44.575Z,99.90
2023-02-19T00:56:12.390Z,99.90
2023-02-19T00:58:39.968Z,99.90
2023-02-19T01:01:10.604Z,99.90
2023-02-19T01:03:39.133Z,99.90
2023-02-19T01:06:08.352Z,99.90
2023-02-19T01:08:35.692Z,99.90
2023-02-19T01:11:04.453Z,99.90
2023-02-19T01:13:31.645Z,99.90
2023-02-19T01:16:13.748Z,99.90
2023-02-19T01:18:41.363Z,99.90
2023-02-19T01:21:11.758Z,99.90
2023-02-19T01:23:39.934Z,99.90
2023-02-19T01:26:09.186Z,99.90
2023-02-19T01:28:36.361Z,99.90
2023-02-19T01:31:05.716Z,99.90
2023-02-19T01:33:34.067Z,99.90
2023-02-19T01:36:04.464Z,99.90
2023-02-19T01:38:31.665Z,99.90
2023-02-19T01:41:01.942Z,99.90
2023-02-19T01:43:29.645Z,99.90
2023-02-19T01:45:56.738Z,99.90
2023-02-19T01:48:30.044Z,99.90
2023-02-19T01:51:04.284Z,99.90
2023-02-19T01:53:36.745Z,99.90
2023-02-19T01:56:05.039Z,99.90
2023-02-19T01:58:35.371Z,99.90
2023-02-19T02:01:05.467Z,99.90
2023-02-19T02:03:33.552Z,99.90
2023-02-19T02:06:19.826Z,99.90
2023-02-19T02:09:06.372Z,99.90
2023-02-19T02:11:33.587Z,99.90
2023-02-19T02:14:01.069Z,99.90
2023-02-19T02:16:40.090Z,99.90
2023-02-19T02:19:31.594Z,99.90
2023-02-19T02:22:12.661Z,99.90
2023-02-19T02:24:57.360Z,99.90
2023-02-19T02:27:44.213Z,99.90
2023-02-19T02:30:18.743Z,99.90
2023-02-19T02:33:00.877Z,99.90
2023-02-19T02:35:38.775Z,99.90
2023-02-19T02:38:10.190Z,99.90
2023-02-19T02:40:39.060Z,99.90
2023-02-19T02:43:06.821Z,99.90
2023-02-19T02:45:37.573Z,99.90
2023-02-19T02:50:27.789Z,99.90
2023-02-19T02:53:20.801Z,99.90
2023-02-19T02:55:51.959Z,99.90
2023-02-19T02:58:22.746Z,99.90
2023-02-19T03:01:14.914Z,99.90
2023-02-19T03:03:45.559Z,99.90
2023-02-19T03:06:17.430Z,99.90
2023-02-19T03:08:52.787Z,99.90
2023-02-19T03:11:38.320Z,99.90
2023-02-19T03:14:36.356Z,99.90
2023-02-19T03:17:30.046Z,99.90
2023-02-19T03:19:59.117Z,99.90
2023-02-19T03:22:31.225Z,99.90
2023-02-19T03:25:22.669Z,99.90
2023-02-19T03:27:51.154Z,99.90
2023-02-19T03:30:25.612Z,99.90
2023-02-19T03:32:57.613Z,99.90
2023-02-19T03:35:35.146Z,99.90
2023-02-19T03:38:18.841Z,99.90
2023-02-19T03:41:12.213Z,99.90
2023-02-19T03:44:00.278Z,99.90
2023-02-19T03:47:06.293Z,99.90
2023-02-19T03:49:54.937Z,99.90
2023-02-19T03:52:40.295Z,99.90
2023-02-19T03:55:14.728Z,99.90
2023-02-19T03:58:06.190Z,99.90
2023-02-19T04:00:41.817Z,99.90
2023-02-19T04:03:20.406Z,99.90
2023-02-19T04:05:53.483Z,99.90
2023-02-19T04:08:24.240Z,99.90
2023-02-19T04:10:53.578Z,99.90
2023-02-19T04:13:26.684Z,99.90
2023-02-19T04:15:57.780Z,99.90
2023-02-19T04:18:29.573Z,99.90
2023-02-19T04:20:57.840Z,99.90
2023-02-19T04:23:29.384Z,99.90
2023-02-19T04:26:00.532Z,99.90
2023-02-19T04:28:29.490Z,99.90
2023-02-19T04:30:56.632Z,99.90
2023-02-19T04:33:23.739Z,99.90
2023-02-19T04:35:50.866Z,99.90
2023-02-19T04:38:17.965Z,99.90
2023-02-19T04:40:45.263Z,99.90
2023-02-19T04:43:12.515Z,99.90
2023-02-19T04:45:39.687Z,99.90
2023-02-19T04:48:06.820Z,99.90
2023-02-19T04:50:33.975Z,99.90
2023-02-19T04:53:01.101Z,99.90
2023-02-19T04:55:28.281Z,99.90
2023-02-19T04:57:55.575Z,99.90
2023-02-19T05:00:22.777Z,99.90
2023-02-19T05:02:49.911Z,99.90
2023-02-19T05:05:17.192Z,99.90
2023-02-19T05:07:44.291Z,99.90
2023-02-19T05:10:11.430Z,99.90
2023-02-19T05:12:38.596Z,99.90
2023-02-19T05:15:05.931Z,99.90
2023-02-19T05:17:34.684Z,99.90
2023-02-19T05:20:01.839Z,99.90
2023-02-19T05:22:30.038Z,99.90
2023-02-19T05:24:57.148Z,99.90
2023-02-19T05:27:24.434Z,99.90
2023-02-19T05:29:51.543Z,99.90
2023-02-19T05:32:18.710Z,99.90
2023-02-19T05:34:45.825Z,99.90
2023-02-19T05:37:12.905Z,99.90
2023-02-19T05:39:40.106Z,99.90
2023-02-19T05:42:07.278Z,99.90
2023-02-19T05:44:34.573Z,99.90
2023-02-19T05:47:01.705Z,99.90
2023-02-19T05:49:29.017Z,99.90
2023-02-19T05:51:56.227Z,99.90
2023-02-19T05:54:23.494Z,99.90
2023-02-19T05:56:50.724Z,99.90
2023-02-19T05:59:21.508Z,99.90
2023-02-19T06:01:50.246Z,99.90
2023-02-19T06:04:19.214Z,99.90
2023-02-19T06:06:47.711Z,99.90
2023-02-19T06:09:14.941Z,99.90
2023-02-19T06:11:43.482Z,99.90
2023-02-19T06:14:13.819Z,99.90
2023-02-19T06:16:41.557Z,99.90
2023-02-19T06:19:08.885Z,99.90
2023-02-19T06:21:35.967Z,99.90
2023-02-19T06:24:10.169Z,99.90
2023-02-19T06:26:38.263Z,99.90
2023-02-19T06:29:05.432Z,99.90
2023-02-19T06:31:32.619Z,99.90
2023-02-19T06:33:59.734Z,99.90
2023-02-19T06:36:26.682Z,99.90
2023-02-19T06:38:53.875Z,99.90
2023-02-19T06:41:20.950Z,99.90
2023-02-19T06:43:48.067Z,99.90
2023-02-19T06:46:15.666Z,99.90
2023-02-19T06:48:44.337Z,99.90
2023-02-19T06:51:18.776Z,99.90
2023-02-19T06:53:46.549Z,99.90
2023-02-19T06:56:31.613Z,99.90
2023-02-19T06:59:01.161Z,99.90
2023-02-19T07:01:30.253Z,99.90
2023-02-19T07:03:57.374Z,99.90
2023-02-19T07:06:25.744Z,99.90
2023-02-19T07:08:54.754Z,99.90
2023-02-19T07:11:22.023Z,99.90
2023-02-19T07:13:54.025Z,99.90
2023-02-19T07:16:20.963Z,99.90
2023-02-19T07:18:48.022Z,99.90
2023-02-19T07:21:16.181Z,99.90
2023-02-19T07:23:45.000Z,99.90
2023-02-19T07:26:13.708Z,99.90
2023-02-19T07:28:41.778Z,99.90
2023-02-19T07:31:09.080Z,99.90
2023-02-19T07:33:36.390Z,99.90
2023-02-19T07:36:03.577Z,99.90
2023-02-19T07:38:30.609Z,99.90
2023-02-19T07:41:02.619Z,99.90
2023-02-19T07:43:32.279Z,99.90
2023-02-19T07:45:59.303Z,99.90
2023-02-19T07:48:26.388Z,99.90
2023-02-19T07:50:57.686Z,99.90
2023-02-19T07:53:25.782Z,99.90
2023-02-19T07:55:53.049Z,99.90
2023-02-19T07:58:20.177Z,99.90
2023-02-19T08:00:47.241Z,99.90
2023-02-19T08:03:14.325Z,99.90
2023-02-19T08:05:42.922Z,99.90
2023-02-19T08:08:12.343Z,99.90
2023-02-19T08:10:58.292Z,99.90
2023-02-19T08:13:27.254Z,99.90
2023-02-19T08:16:21.891Z,99.90
2023-02-19T08:18:53.907Z,99.90
2023-02-19T08:21:21.153Z,99.90
2023-02-19T08:23:50.867Z,99.90
2023-02-19T08:26:18.532Z,99.90
2023-02-19T08:28:45.932Z,99.90
2023-02-19T08:31:13.587Z,99.90
2023-02-19T08:33:41.027Z,99.90
2023-02-19T08:36:09.797Z,99.90
2023-02-19T08:38:37.694Z,99.90
2023-02-19T08:41:10.440Z,99.90
2023-02-19T08:43:37.910Z,99.90
2023-02-19T08:46:07.124Z,99.90
2023-02-19T08:48:34.613Z,99.90
2023-02-19T08:51:04.615Z,99.90
2023-02-19T08:53:32.985Z,99.90
2023-02-19T08:56:05.697Z,99.90
2023-02-19T08:58:33.196Z,99.90
2023-02-19T09:01:00.414Z,99.90
2023-02-19T09:03:27.572Z,99.90
2023-02-19T09:05:54.638Z,99.90
2023-02-19T09:08:21.611Z,99.90
2023-02-19T09:11:01.520Z,99.90
2023-02-19T09:13:28.648Z,99.90
2023-02-19T09:15:57.199Z,99.90
2023-02-19T09:18:25.341Z,99.90
2023-02-19T09:20:52.710Z,99.90
2023-02-19T09:23:20.174Z,99.90
2023-02-19T09:25:47.420Z,99.90
2023-02-19T09:28:14.471Z,99.90
2023-02-19T09:30:41.575Z,99.90
2023-02-19T09:33:09.258Z,99.90
2023-02-19T09:35:39.582Z,99.90
2023-02-19T09:38:07.052Z,99.90
2023-02-19T09:40:36.243Z,99.90
2023-02-19T09:43:07.889Z,99.90
2023-02-19T09:45:36.069Z,99.90
2023-02-19T09:48:06.216Z,99.90
2023-02-19T09:58:21.530Z,99.90
2023-02-19T10:03:12.667Z,99.70
2023-02-19T10:05:41.046Z,99.90
2023-02-19T10:08:13.388Z,99.90
2023-02-19T10:10:41.550Z,99.90
2023-02-19T10:13:22.273Z,99.90
2023-02-19T10:18:15.927Z,99.90
2023-02-19T10:20:43.104Z,99.90
2023-02-19T10:23:14.412Z,99.90
2023-02-19T10:25:54.274Z,99.90
2023-02-19T10:28:25.389Z,99.90
2023-02-19T10:30:55.473Z,99.90
2023-02-19T10:33:23.581Z,99.90
2023-02-19T10:35:54.372Z,99.90
2023-02-19T10:38:30.614Z,99.90
2023-02-19T10:41:05.197Z,99.90
2023-02-19T10:43:37.157Z,99.90
2023-02-19T10:46:16.845Z,99.70
2023-02-19T10:48:54.003Z,99.00
2023-02-19T10:53:48.958Z,98.60
2023-02-19T10:58:34.503Z,98.00
2023-02-19T11:03:25.035Z,97.80
2023-02-19T11:08:25.027Z,97.00
2023-02-19T11:10:52.183Z,97.50
2023-02-19T11:13:30.999Z,97.40
2023-02-19T11:15:59.166Z,97.20
2023-02-19T11:18:29.523Z,96.60
2023-02-19T11:21:02.270Z,97.10
2023-02-19T11:23:30.282Z,97.60
2023-02-19T11:26:03.760Z,98.10
2023-02-19T11:28:35.809Z,98.60
2023-02-19T11:31:29.612Z,99.10
2023-02-19T11:34:00.068Z,99.90
2023-02-19T11:36:30.647Z,99.90
2023-02-19T11:39:02.141Z,99.90
2023-02-19T11:42:00.200Z,99.90
2023-02-19T11:44:39.797Z,99.90
2023-02-19T11:47:25.321Z,99.90
2023-02-19T11:50:21.769Z,99.90
2023-02-19T11:53:13.402Z,99.90
2023-02-19T11:56:04.784Z,99.90
2023-02-19T11:58:59.484Z,99.90
2023-02-19T12:01:47.011Z,99.90
2023-02-19T12:04:35.290Z,99.90
2023-02-19T12:07:11.490Z,99.90
2023-02-19T12:10:04.019Z,99.90
2023-02-19T12:12:50.425Z,99.90
2023-02-19T12:15:41.209Z,99.90
2023-02-19T12:18:14.103Z,99.90
2023-02-19T12:20:53.521Z,99.90
2023-02-19T12:23:39.208Z,99.90
2023-02-19T12:26:30.397Z,99.90
2023-02-19T12:29:21.082Z,99.90
2023-02-19T12:31:56.339Z,99.90
2023-02-19T12:34:41.723Z,99.90
2023-02-19T12:37:15.389Z,99.90
2023-02-19T12:40:03.698Z,99.90
2023-02-19T12:42:36.389Z,99.90
2023-02-19T12:45:38.985Z,99.90
2023-02-19T12:48:20.587Z,99.90
2023-02-19T12:50:52.098Z,99.90
2023-02-19T12:53:34.711Z,99.90
2023-02-19T12:56:06.681Z,99.90
2023-02-19T12:58:56.081Z,99.90
2023-02-19T13:01:28.290Z,99.90
2023-02-19T13:04:18.604Z,99.90
2023-02-19T13:06:56.565Z,99.90
2023-02-19T13:09:40.011Z,99.90
2023-02-19T13:12:35.040Z,99.90
2023-02-19T13:15:07.435Z,99.90
2023-02-19T13:17:55.267Z,99.90
2023-02-19T13:20:35.285Z,99.90
2023-02-19T13:23:38.654Z,99.90
2023-02-19T13:26:21.668Z,99.90
2023-02-19T13:29:02.979Z,99.90
2023-02-19T13:31:48.661Z,99.90
2023-02-19T13:34:37.212Z,99.90
2023-02-19T13:37:05.399Z,99.90
2023-02-19T13:39:32.515Z,99.90
2023-02-19T13:41:59.950Z,99.90
2023-02-19T13:44:29.595Z,99.90
2023-02-19T13:46:57.107Z,99.90
2023-02-19T13:49:29.905Z,99.90
2023-02-19T13:56:36.217Z,99.90
2023-02-19T14:01:51.865Z,99.90
2023-02-19T14:07:04.516Z,99.90
2023-02-19T14:09:37.750Z,99.90
2023-02-19T14:12:04.897Z,99.90
2023-02-19T14:14:39.545Z,99.90
2023-02-19T14:17:09.420Z,99.90
2023-02-19T14:19:42.417Z,99.90
2023-02-19T14:22:46.634Z,99.90
2023-02-19T14:27:29.094Z,99.90
2023-02-19T14:29:56.414Z,99.90
2023-02-19T14:32:25.221Z,99.90
2023-02-19T14:34:53.043Z,99.90
2023-02-19T14:37:22.431Z,99.90
2023-02-19T14:44:42.193Z,99.90
2023-02-19T14:47:19.509Z,99.90
2023-02-19T14:50:15.170Z,99.90
2023-02-19T14:52:49.370Z,99.90
2023-02-19T14:55:33.920Z,99.90
2023-02-19T14:58:12.153Z,99.90
2023-02-19T15:00:41.627Z,99.90
2023-02-19T15:05:26.714Z,99.90
2023-02-19T15:07:56.657Z,99.90
2023-02-19T15:12:46.339Z,99.90
2023-02-19T15:15:22.101Z,99.90
2023-02-19T15:17:50.153Z,99.90
2023-02-19T15:20:20.908Z,99.90
2023-02-19T15:22:48.171Z,99.90
2023-02-19T15:25:21.593Z,99.90
2023-02-19T15:27:48.976Z,99.90
2023-02-19T15:30:31.337Z,99.90
2023-02-19T15:33:00.305Z,99.90
2023-02-19T15:35:28.873Z,99.90
2023-02-19T15:37:56.475Z,99.90
2023-02-19T15:40:31.536Z,99.90
2023-02-19T15:43:00.586Z,99.90
2023-02-19T15:45:27.648Z,99.90
2023-02-19T16:34:41.578Z,99.90
2023-02-19T16:39:24.422Z,99.90
2023-02-19T16:44:33.487Z,99.90
2023-02-19T16:47:14.900Z,99.90
2023-02-19T16:49:42.646Z,99.90
2023-02-19T16:52:14.635Z,99.90
2023-02-19T16:54:41.833Z,99.90
2023-02-19T16:57:08.798Z,99.90
2023-02-19T16:59:35.866Z,99.90
2023-02-19T17:02:09.066Z,99.90
2023-02-19T17:04:36.146Z,99.90
2023-02-19T17:07:03.433Z,99.90
2023-02-19T17:09:30.468Z,99.90
2023-02-19T17:11:57.538Z,99.90
2023-02-19T17:14:24.892Z,99.90
2023-02-19T17:16:51.945Z,99.90
2023-02-19T17:19:19.843Z,99.90
2023-02-19T17:21:47.532Z,99.90
2023-02-19T17:24:15.159Z,99.90
2023-02-19T17:26:42.424Z,99.90
2023-02-19T17:29:15.086Z,99.90
2023-02-19T17:31:42.202Z,99.90
2023-02-19T17:34:09.270Z,99.90
2023-02-19T17:36:38.004Z,99.90
2023-02-19T17:39:07.255Z,99.90
2023-02-19T17:41:34.199Z,99.90
2023-02-19T17:44:01.343Z,99.90
2023-02-19T17:46:28.321Z,99.90
2023-02-19T17:48:56.045Z,99.90
2023-02-19T17:51:23.148Z,99.90
2023-02-19T17:53:50.235Z,99.90
2023-02-19T17:56:19.899Z,99.90
2023-02-19T17:58:47.154Z,99.90
2023-02-19T18:01:14.940Z,99.90
2023-02-19T18:03:43.622Z,99.90
2023-02-19T18:06:11.347Z,99.90
2023-02-19T18:08:38.768Z,99.90
2023-02-19T18:11:07.838Z,99.90
2023-02-19T18:13:34.903Z,99.90
2023-02-19T18:16:02.127Z,99.90
2023-02-19T18:18:30.314Z,99.90
2023-02-19T18:20:57.351Z,99.90
2023-02-19T18:23:24.369Z,99.90
2023-02-19T18:25:51.396Z,99.90
2023-02-19T18:28:18.388Z,99.90
2023-02-19T18:30:45.529Z,99.90
2023-02-19T18:33:13.390Z,99.90
2023-02-19T18:35:40.710Z,99.90
2023-02-19T18:38:07.970Z,99.90
2023-02-19T18:40:35.032Z,99.90
2023-02-19T18:43:02.121Z,99.90
2023-02-19T18:45:29.765Z,99.90
2023-02-19T18:47:56.942Z,99.90
2023-02-19T18:50:24.042Z,99.90
2023-02-19T18:52:51.692Z,99.90
2023-02-19T18:55:19.010Z,99.90
2023-02-19T18:57:47.056Z,99.90
2023-02-19T19:00:19.612Z,99.90
2023-02-19T19:02:49.791Z,99.90
2023-02-19T19:05:23.290Z,99.90
2023-02-19T19:07:52.049Z,99.90
2023-02-19T19:10:19.622Z,99.90
2023-02-19T19:12:46.942Z,99.90
2023-02-19T19:15:17.990Z,99.90
2023-02-19T19:17:45.754Z,99.90
2023-02-19T19:20:13.473Z,99.90
2023-02-19T19:22:40.914Z,99.90
2023-02-19T19:25:08.957Z,99.90
2023-02-19T19:27:36.098Z,99.90
2023-02-19T19:30:06.575Z,99.90
2023-02-19T19:32:33.683Z,99.90
2023-02-19T19:35:02.594Z,99.90
2023-02-19T19:37:29.799Z,99.90
2023-02-19T19:39:57.369Z,99.90
2023-02-19T19:42:24.576Z,99.90
2023-02-19T19:44:51.677Z,99.90
2023-02-19T19:47:19.254Z,99.90
2023-02-19T19:49:47.442Z,99.90
2023-02-19T19:52:15.163Z,99.90
2023-02-19T19:54:43.214Z,99.90
2023-02-19T19:57:11.043Z,99.90
2023-02-19T19:59:39.452Z,99.90
2023-02-19T20:02:07.989Z,99.90
2023-02-19T20:04:35.048Z,99.90
2023-02-19T20:07:02.493Z,99.90
2023-02-19T20:09:29.681Z,99.90
2023-02-19T20:11:57.189Z,99.90
2023-02-19T20:14:25.684Z,99.90
2023-02-19T20:16:55.034Z,99.90
2023-02-19T20:19:22.697Z,99.90
2023-02-19T20:21:52.596Z,99.90
2023-02-19T20:24:28.549Z,99.90
2023-02-19T20:27:02.008Z,99.90
2023-02-19T20:29:31.221Z,99.90
2023-02-19T20:31:59.916Z,99.90
2023-02-19T20:34:27.777Z,99.90
2023-02-19T20:36:54.855Z,99.90
2023-02-19T20:39:22.589Z,99.90
2023-02-19T20:41:52.337Z,99.90
2023-02-19T20:44:20.644Z,99.90
2023-02-19T20:46:49.913Z,99.90
2023-02-19T20:49:20.398Z,99.90
2023-02-19T20:51:48.327Z,99.90
2023-02-19T20:54:17.685Z,99.90
2023-02-19T20:56:49.403Z,99.90
2023-02-19T20:59:17.778Z,99.90
2023-02-19T21:01:45.271Z,99.90
2023-02-19T21:04:13.292Z,99.90
2023-02-19T21:06:40.581Z,99.90
2023-02-19T21:09:08.272Z,99.90
2023-02-19T21:11:35.719Z,99.90
2023-02-19T21:14:04.333Z,99.90
2023-02-19T21:16:33.023Z,99.90
2023-02-19T21:19:01.347Z,99.90
2023-02-19T21:21:31.315Z,99.90
2023-02-19T21:24:00.138Z,99.90
2023-02-19T21:26:38.810Z,99.90
2023-02-19T21:29:07.559Z,99.90
2023-02-19T21:31:43.236Z,99.90
2023-02-19T21:34:14.011Z,99.90
2023-02-19T21:36:42.465Z,99.90
2023-02-19T21:39:12.288Z,99.90
2023-02-19T21:41:39.324Z,99.90
2023-02-19T21:44:06.385Z,99.90
2023-02-19T21:46:33.754Z,99.90
2023-02-19T21:49:01.482Z,99.90
2023-02-19T21:51:34.218Z,99.90
2023-02-19T21:54:02.153Z,99.90
2023-02-19T21:56:31.852Z,99.90
2023-02-19T21:58:59.327Z,99.90
2023-02-19T22:01:32.348Z,99.90
2023-02-19T22:03:59.827Z,99.90
2023-02-19T22:06:29.271Z,99.90
2023-02-19T22:08:57.137Z,99.90
2023-02-19T22:11:24.364Z,99.90
2023-02-19T22:13:51.823Z,99.90
2023-02-19T22:16:19.195Z,99.90
2023-02-19T22:18:51.454Z,99.90
2023-02-19T22:21:19.938Z,99.90
2023-02-19T22:23:48.650Z,99.90
2023-02-19T22:26:27.875Z,99.90
2023-02-19T22:28:55.648Z,99.90
2023-02-19T22:31:24.932Z,99.90
2023-02-19T22:33:52.842Z,99.90
2023-02-19T22:36:22.375Z,99.90
2023-02-19T22:38:49.808Z,99.90
2023-02-19T22:41:18.550Z,99.90
2023-02-19T22:43:45.972Z,99.90
2023-02-19T22:46:22.435Z,99.90
2023-02-19T22:48:50.746Z,99.90
2023-02-19T22:51:20.765Z,99.90
2023-02-19T22:53:53.985Z,99.90
2023-02-19T22:56:23.268Z,99.90
2023-02-19T22:58:51.377Z,99.90
2023-02-19T23:01:18.737Z,99.90
2023-02-19T23:03:50.879Z,99.90
2023-02-19T23:06:22.628Z,99.90
2023-02-19T23:08:49.826Z,99.90
2023-02-19T23:11:25.657Z,99.90
2023-02-19T23:13:52.844Z,99.90
2023-02-19T23:16:20.153Z,99.90
2023-02-19T23:18:47.530Z,99.90
2023-02-19T23:21:15.263Z,99.90
2023-02-19T23:23:43.436Z,99.90
2023-02-19T23:26:12.402Z,99.90
2023-02-19T23:28:40.073Z,99.90
2023-02-19T23:31:07.898Z,99.90
2023-02-19T23:33:35.488Z,99.90
2023-02-19T23:36:02.961Z,99.90
2023-02-19T23:38:30.077Z,99.90
2023-02-19T23:40:57.222Z,99.90
2023-02-19T23:43:24.366Z,99.90
2023-02-19T23:45:51.638Z,99.90
2023-02-19T23:48:18.866Z,99.90
2023-02-19T23:50:46.132Z,99.90
2023-02-19T23:53:13.334Z,99.90
2023-02-19T23:55:40.917Z,99.90
2023-02-19T23:58:08.051Z,99.90
